sensor_id;sensor_type;location;lat;lon;timestamp;P1;durP1;ratioP1;P2;durP2;ratioP2
72095;SDS011;59968;51.084;16.748;2023-07-22T00:00:13;5.20;;;3.20;;
72095;SDS011;59968;51.084;16.748;2023-07-22T00:03:06;5.10;;;3.10;;
72095;SDS011;59968;51.084;16.748;2023-07-22T00:05:37;3.90;;;3.00;;
72095;SDS011;59968;51.084;16.748;2023-07-22T00:08:06;5.20;;;3.20;;
72095;SDS011;59968;51.084;16.748;2023-07-22T00:10:35;3.90;;;2.90;;
72095;SDS011;59968;51.084;16.748;2023-07-22T00:13:04;4.00;;;3.10;;
72095;SDS011;59968;51.084;16.748;2023-07-22T00:15:33;5.90;;;3.50;;
72095;SDS011;59968;51.084;16.748;2023-07-22T00:18:03;4.70;;;3.40;;
72095;SDS011;59968;51.084;16.748;2023-07-22T00:20:33;4.50;;;3.10;;
72095;SDS011;59968;51.084;16.748;2023-07-22T00:23:03;4.80;;;3.30;;
72095;SDS011;59968;51.084;16.748;2023-07-22T00:25:32;5.00;;;3.20;;
72095;SDS011;59968;51.084;16.748;2023-07-22T00:28:01;4.80;;;3.20;;
72095;SDS011;59968;51.084;16.748;2023-07-22T00:30:33;4.50;;;3.10;;
72095;SDS011;59968;51.084;16.748;2023-07-22T00:33:06;4.50;;;3.30;;
72095;SDS011;59968;51.084;16.748;2023-07-22T00:35:49;4.70;;;3.50;;
72095;SDS011;59968;51.084;16.748;2023-07-22T00:38:20;4.70;;;3.40;;
72095;SDS011;59968;51.084;16.748;2023-07-22T00:40:49;5.10;;;3.60;;
72095;SDS011;59968;51.084;16.748;2023-07-22T00:43:24;5.90;;;3.60;;
72095;SDS011;59968;51.084;16.748;2023-07-22T00:45:56;6.00;;;3.40;;
72095;SDS011;59968;51.084;16.748;2023-07-22T00:48:25;4.70;;;3.40;;
72095;SDS011;59968;51.084;16.748;2023-07-22T00:50:56;5.70;;;4.00;;
72095;SDS011;59968;51.084;16.748;2023-07-22T00:53:24;6.30;;;3.50;;
72095;SDS011;59968;51.084;16.748;2023-07-22T00:55:54;7.50;;;3.60;;
72095;SDS011;59968;51.084;16.748;2023-07-22T00:58:23;5.60;;;3.70;;
72095;SDS011;59968;51.084;16.748;2023-07-22T01:00:53;5.90;;;3.50;;
72095;SDS011;59968;51.084;16.748;2023-07-22T01:03:22;4.70;;;3.70;;
72095;SDS011;59968;51.084;16.748;2023-07-22T01:05:51;6.50;;;4.20;;
72095;SDS011;59968;51.084;16.748;2023-07-22T01:08:23;5.80;;;4.30;;
72095;SDS011;59968;51.084;16.748;2023-07-22T01:10:53;4.70;;;3.60;;
72095;SDS011;59968;51.084;16.748;2023-07-22T01:13:42;5.50;;;3.80;;
72095;SDS011;59968;51.084;16.748;2023-07-22T01:16:12;5.70;;;3.70;;
72095;SDS011;59968;51.084;16.748;2023-07-22T01:18:42;7.10;;;4.00;;
72095;SDS011;59968;51.084;16.748;2023-07-22T01:21:12;8.40;;;4.20;;
72095;SDS011;59968;51.084;16.748;2023-07-22T01:23:43;6.10;;;4.10;;
72095;SDS011;59968;51.084;16.748;2023-07-22T01:26:13;6.70;;;4.60;;
72095;SDS011;59968;51.084;16.748;2023-07-22T01:28:43;6.20;;;4.60;;
72095;SDS011;59968;51.084;16.748;2023-07-22T01:31:13;6.80;;;4.80;;
72095;SDS011;59968;51.084;16.748;2023-07-22T01:33:43;7.30;;;5.10;;
72095;SDS011;59968;51.084;16.748;2023-07-22T01:36:12;7.80;;;4.70;;
72095;SDS011;59968;51.084;16.748;2023-07-22T01:38:41;7.00;;;4.90;;
72095;SDS011;59968;51.084;16.748;2023-07-22T01:41:11;7.00;;;5.10;;
72095;SDS011;59968;51.084;16.748;2023-07-22T01:43:40;8.50;;;5.00;;
72095;SDS011;59968;51.084;16.748;2023-07-22T01:46:09;7.80;;;5.20;;
72095;SDS011;59968;51.084;16.748;2023-07-22T01:48:41;9.80;;;5.40;;
72095;SDS011;59968;51.084;16.748;2023-07-22T01:51:10;8.10;;;5.20;;
72095;SDS011;59968;51.084;16.748;2023-07-22T01:53:39;8.90;;;5.50;;
72095;SDS011;59968;51.084;16.748;2023-07-22T01:56:08;7.90;;;5.40;;
72095;SDS011;59968;51.084;16.748;2023-07-22T01:58:38;7.80;;;5.40;;
72095;SDS011;59968;51.084;16.748;2023-07-22T02:01:06;7.40;;;4.90;;
72095;SDS011;59968;51.084;16.748;2023-07-22T02:03:36;7.20;;;5.40;;
72095;SDS011;59968;51.084;16.748;2023-07-22T02:06:04;8.10;;;4.90;;
72095;SDS011;59968;51.084;16.748;2023-07-22T02:08:33;8.00;;;5.10;;
72095;SDS011;59968;51.084;16.748;2023-07-22T02:11:03;6.50;;;4.60;;
72095;SDS011;59968;51.084;16.748;2023-07-22T02:13:35;9.70;;;5.50;;
72095;SDS011;59968;51.084;16.748;2023-07-22T02:16:03;7.80;;;5.00;;
72095;SDS011;59968;51.084;16.748;2023-07-22T02:18:32;7.70;;;5.30;;
72095;SDS011;59968;51.084;16.748;2023-07-22T02:21:01;6.90;;;4.60;;
72095;SDS011;59968;51.084;16.748;2023-07-22T02:23:30;8.60;;;5.00;;
72095;SDS011;59968;51.084;16.748;2023-07-22T02:25:58;7.60;;;4.70;;
72095;SDS011;59968;51.084;16.748;2023-07-22T02:28:27;8.00;;;5.00;;
72095;SDS011;59968;51.084;16.748;2023-07-22T02:31:00;7.80;;;5.10;;
72095;SDS011;59968;51.084;16.748;2023-07-22T02:33:34;8.70;;;5.70;;
72095;SDS011;59968;51.084;16.748;2023-07-22T02:36:03;7.80;;;5.20;;
72095;SDS011;59968;51.084;16.748;2023-07-22T02:38:33;9.20;;;5.20;;
72095;SDS011;59968;51.084;16.748;2023-07-22T02:41:02;7.80;;;4.90;;
72095;SDS011;59968;51.084;16.748;2023-07-22T02:43:34;8.20;;;5.00;;
72095;SDS011;59968;51.084;16.748;2023-07-22T02:46:04;8.70;;;5.20;;
72095;SDS011;59968;51.084;16.748;2023-07-22T02:48:36;8.00;;;4.70;;
72095;SDS011;59968;51.084;16.748;2023-07-22T02:51:07;6.90;;;4.40;;
72095;SDS011;59968;51.084;16.748;2023-07-22T02:53:37;6.10;;;4.20;;
72095;SDS011;59968;51.084;16.748;2023-07-22T02:56:06;7.20;;;4.50;;
72095;SDS011;59968;51.084;16.748;2023-07-22T02:58:36;6.80;;;4.50;;
72095;SDS011;59968;51.084;16.748;2023-07-22T03:01:05;7.60;;;4.50;;
72095;SDS011;59968;51.084;16.748;2023-07-22T03:03:35;5.70;;;4.20;;
72095;SDS011;59968;51.084;16.748;2023-07-22T03:06:04;5.60;;;4.20;;
72095;SDS011;59968;51.084;16.748;2023-07-22T03:08:33;5.80;;;4.20;;
72095;SDS011;59968;51.084;16.748;2023-07-22T03:11:02;7.20;;;4.60;;
72095;SDS011;59968;51.084;16.748;2023-07-22T03:13:31;7.30;;;4.50;;
72095;SDS011;59968;51.084;16.748;2023-07-22T03:16:02;7.00;;;4.20;;
72095;SDS011;59968;51.084;16.748;2023-07-22T03:18:34;5.80;;;4.00;;
72095;SDS011;59968;51.084;16.748;2023-07-22T03:21:02;6.40;;;4.20;;
72095;SDS011;59968;51.084;16.748;2023-07-22T03:23:32;6.50;;;4.80;;
72095;SDS011;59968;51.084;16.748;2023-07-22T03:26:01;6.50;;;4.20;;
72095;SDS011;59968;51.084;16.748;2023-07-22T03:28:29;7.80;;;4.30;;
72095;SDS011;59968;51.084;16.748;2023-07-22T03:30:59;7.30;;;4.40;;
72095;SDS011;59968;51.084;16.748;2023-07-22T03:33:29;7.00;;;4.50;;
72095;SDS011;59968;51.084;16.748;2023-07-22T03:35:58;5.30;;;4.00;;
72095;SDS011;59968;51.084;16.748;2023-07-22T03:38:27;6.40;;;4.30;;
72095;SDS011;59968;51.084;16.748;2023-07-22T03:40:55;6.50;;;4.10;;
72095;SDS011;59968;51.084;16.748;2023-07-22T03:43:24;6.40;;;4.50;;
72095;SDS011;59968;51.084;16.748;2023-07-22T03:45:52;6.80;;;4.10;;
72095;SDS011;59968;51.084;16.748;2023-07-22T03:48:21;6.00;;;4.10;;
72095;SDS011;59968;51.084;16.748;2023-07-22T03:50:50;6.00;;;3.90;;
72095;SDS011;59968;51.084;16.748;2023-07-22T03:53:32;6.10;;;4.00;;
72095;SDS011;59968;51.084;16.748;2023-07-22T03:56:01;5.90;;;3.90;;
72095;SDS011;59968;51.084;16.748;2023-07-22T03:58:29;4.80;;;3.70;;
72095;SDS011;59968;51.084;16.748;2023-07-22T04:00:59;5.30;;;3.70;;
72095;SDS011;59968;51.084;16.748;2023-07-22T04:03:28;4.80;;;3.20;;
72095;SDS011;59968;51.084;16.748;2023-07-22T04:05:57;4.20;;;3.00;;
72095;SDS011;59968;51.084;16.748;2023-07-22T04:08:33;5.70;;;3.60;;
72095;SDS011;59968;51.084;16.748;2023-07-22T04:11:02;6.20;;;3.00;;
72095;SDS011;59968;51.084;16.748;2023-07-22T04:13:31;3.60;;;2.80;;
72095;SDS011;59968;51.084;16.748;2023-07-22T04:16:00;5.20;;;2.90;;
72095;SDS011;59968;51.084;16.748;2023-07-22T04:18:29;5.10;;;2.90;;
72095;SDS011;59968;51.084;16.748;2023-07-22T04:21:02;3.50;;;2.30;;
72095;SDS011;59968;51.084;16.748;2023-07-22T04:23:31;5.40;;;2.70;;
72095;SDS011;59968;51.084;16.748;2023-07-22T04:26:02;5.50;;;2.90;;
72095;SDS011;59968;51.084;16.748;2023-07-22T04:28:35;3.20;;;2.60;;
72095;SDS011;59968;51.084;16.748;2023-07-22T04:31:06;3.70;;;2.40;;
72095;SDS011;59968;51.084;16.748;2023-07-22T04:33:35;3.50;;;2.40;;
72095;SDS011;59968;51.084;16.748;2023-07-22T04:36:04;4.50;;;2.40;;
72095;SDS011;59968;51.084;16.748;2023-07-22T04:38:33;4.30;;;2.60;;
72095;SDS011;59968;51.084;16.748;2023-07-22T04:41:03;3.40;;;2.40;;
72095;SDS011;59968;51.084;16.748;2023-07-22T04:43:33;3.60;;;2.40;;
72095;SDS011;59968;51.084;16.748;2023-07-22T04:46:03;3.80;;;2.50;;
72095;SDS011;59968;51.084;16.748;2023-07-22T04:48:37;4.60;;;2.50;;
72095;SDS011;59968;51.084;16.748;2023-07-22T04:51:07;4.80;;;2.70;;
72095;SDS011;59968;51.084;16.748;2023-07-22T04:53:36;3.50;;;2.20;;
72095;SDS011;59968;51.084;16.748;2023-07-22T04:56:05;3.00;;;2.40;;
72095;SDS011;59968;51.084;16.748;2023-07-22T04:58:35;5.30;;;2.70;;
72095;SDS011;59968;51.084;16.748;2023-07-22T05:01:05;3.40;;;2.00;;
72095;SDS011;59968;51.084;16.748;2023-07-22T05:03:34;3.60;;;2.30;;
72095;SDS011;59968;51.084;16.748;2023-07-22T05:06:14;5.10;;;2.60;;
72095;SDS011;59968;51.084;16.748;2023-07-22T05:08:44;2.90;;;1.80;;
72095;SDS011;59968;51.084;16.748;2023-07-22T05:11:13;3.60;;;2.50;;
72095;SDS011;59968;51.084;16.748;2023-07-22T05:13:42;3.10;;;2.20;;
72095;SDS011;59968;51.084;16.748;2023-07-22T05:16:10;3.70;;;2.90;;
72095;SDS011;59968;51.084;16.748;2023-07-22T05:18:39;3.70;;;2.40;;
72095;SDS011;59968;51.084;16.748;2023-07-22T05:21:08;4.30;;;2.40;;
72095;SDS011;59968;51.084;16.748;2023-07-22T05:23:37;5.30;;;2.90;;
72095;SDS011;59968;51.084;16.748;2023-07-22T05:26:05;4.00;;;2.30;;
72095;SDS011;59968;51.084;16.748;2023-07-22T05:28:34;3.70;;;2.70;;
72095;SDS011;59968;51.084;16.748;2023-07-22T05:31:02;2.90;;;2.00;;
72095;SDS011;59968;51.084;16.748;2023-07-22T05:33:31;3.40;;;2.60;;
72095;SDS011;59968;51.084;16.748;2023-07-22T05:36:00;3.70;;;2.30;;
72095;SDS011;59968;51.084;16.748;2023-07-22T05:38:29;4.00;;;2.20;;
72095;SDS011;59968;51.084;16.748;2023-07-22T05:41:00;2.70;;;2.00;;
72095;SDS011;59968;51.084;16.748;2023-07-22T05:43:28;3.50;;;2.40;;
72095;SDS011;59968;51.084;16.748;2023-07-22T05:45:58;3.80;;;2.50;;
72095;SDS011;59968;51.084;16.748;2023-07-22T05:48:27;3.30;;;2.70;;
72095;SDS011;59968;51.084;16.748;2023-07-22T05:50:56;4.30;;;2.60;;
72095;SDS011;59968;51.084;16.748;2023-07-22T05:53:25;4.00;;;2.50;;
72095;SDS011;59968;51.084;16.748;2023-07-22T05:55:53;2.90;;;2.30;;
72095;SDS011;59968;51.084;16.748;2023-07-22T05:58:22;3.50;;;2.80;;
72095;SDS011;59968;51.084;16.748;2023-07-22T06:00:50;4.50;;;2.30;;
72095;SDS011;59968;51.084;16.748;2023-07-22T06:03:19;4.00;;;2.70;;
72095;SDS011;59968;51.084;16.748;2023-07-22T06:05:49;4.70;;;3.00;;
72095;SDS011;59968;51.084;16.748;2023-07-22T06:08:18;3.10;;;2.50;;
72095;SDS011;59968;51.084;16.748;2023-07-22T06:10:46;4.00;;;2.90;;
72095;SDS011;59968;51.084;16.748;2023-07-22T06:13:15;3.40;;;2.40;;
72095;SDS011;59968;51.084;16.748;2023-07-22T06:15:44;5.00;;;2.90;;
72095;SDS011;59968;51.084;16.748;2023-07-22T06:18:12;4.90;;;2.90;;
72095;SDS011;59968;51.084;16.748;2023-07-22T06:20:41;3.50;;;2.60;;
72095;SDS011;59968;51.084;16.748;2023-07-22T06:23:10;4.40;;;2.80;;
72095;SDS011;59968;51.084;16.748;2023-07-22T06:25:39;5.40;;;2.90;;
72095;SDS011;59968;51.084;16.748;2023-07-22T06:28:08;5.70;;;3.00;;
72095;SDS011;59968;51.084;16.748;2023-07-22T06:30:37;3.00;;;2.60;;
72095;SDS011;59968;51.084;16.748;2023-07-22T06:33:08;4.10;;;2.50;;
72095;SDS011;59968;51.084;16.748;2023-07-22T06:35:37;3.90;;;2.50;;
72095;SDS011;59968;51.084;16.748;2023-07-22T06:38:06;4.40;;;2.30;;
72095;SDS011;59968;51.084;16.748;2023-07-22T06:40:35;4.70;;;2.40;;
72095;SDS011;59968;51.084;16.748;2023-07-22T06:43:03;3.70;;;2.70;;
72095;SDS011;59968;51.084;16.748;2023-07-22T06:45:32;4.80;;;3.20;;
72095;SDS011;59968;51.084;16.748;2023-07-22T06:48:01;4.00;;;2.70;;
72095;SDS011;59968;51.084;16.748;2023-07-22T06:50:35;4.50;;;2.80;;
72095;SDS011;59968;51.084;16.748;2023-07-22T06:53:04;3.90;;;2.90;;
72095;SDS011;59968;51.084;16.748;2023-07-22T06:55:34;3.70;;;2.50;;
72095;SDS011;59968;51.084;16.748;2023-07-22T06:58:05;3.60;;;2.70;;
72095;SDS011;59968;51.084;16.748;2023-07-22T07:00:34;3.90;;;2.30;;
72095;SDS011;59968;51.084;16.748;2023-07-22T07:03:02;3.00;;;2.50;;
72095;SDS011;59968;51.084;16.748;2023-07-22T07:05:31;2.70;;;2.30;;
72095;SDS011;59968;51.084;16.748;2023-07-22T07:08:00;3.60;;;2.30;;
72095;SDS011;59968;51.084;16.748;2023-07-22T07:10:30;4.10;;;2.40;;
72095;SDS011;59968;51.084;16.748;2023-07-22T07:13:00;2.80;;;2.40;;
72095;SDS011;59968;51.084;16.748;2023-07-22T07:15:28;3.40;;;2.60;;
72095;SDS011;59968;51.084;16.748;2023-07-22T07:17:57;4.30;;;2.30;;
72095;SDS011;59968;51.084;16.748;2023-07-22T07:20:28;3.90;;;2.60;;
72095;SDS011;59968;51.084;16.748;2023-07-22T07:22:59;3.40;;;2.20;;
72095;SDS011;59968;51.084;16.748;2023-07-22T07:25:27;3.40;;;2.10;;
72095;SDS011;59968;51.084;16.748;2023-07-22T07:27:57;3.20;;;2.30;;
72095;SDS011;59968;51.084;16.748;2023-07-22T07:30:25;4.30;;;2.30;;
72095;SDS011;59968;51.084;16.748;2023-07-22T07:32:54;5.10;;;2.90;;
72095;SDS011;59968;51.084;16.748;2023-07-22T07:35:26;4.90;;;2.40;;
72095;SDS011;59968;51.084;16.748;2023-07-22T07:37:55;3.50;;;2.10;;
72095;SDS011;59968;51.084;16.748;2023-07-22T07:40:24;3.60;;;2.20;;
72095;SDS011;59968;51.084;16.748;2023-07-22T07:42:56;3.40;;;2.20;;
72095;SDS011;59968;51.084;16.748;2023-07-22T07:45:26;5.20;;;2.70;;
72095;SDS011;59968;51.084;16.748;2023-07-22T07:47:56;3.20;;;2.20;;
72095;SDS011;59968;51.084;16.748;2023-07-22T07:50:30;3.00;;;2.10;;
72095;SDS011;59968;51.084;16.748;2023-07-22T07:52:59;3.00;;;2.30;;
72095;SDS011;59968;51.084;16.748;2023-07-22T07:55:31;3.40;;;2.30;;
72095;SDS011;59968;51.084;16.748;2023-07-22T07:58:02;4.30;;;2.40;;
72095;SDS011;59968;51.084;16.748;2023-07-22T08:00:31;3.90;;;2.10;;
72095;SDS011;59968;51.084;16.748;2023-07-22T08:03:00;2.80;;;2.20;;
72095;SDS011;59968;51.084;16.748;2023-07-22T08:05:32;4.70;;;2.20;;
72095;SDS011;59968;51.084;16.748;2023-07-22T08:08:09;2.30;;;1.60;;
72095;SDS011;59968;51.084;16.748;2023-07-22T08:10:57;3.20;;;1.80;;
72095;SDS011;59968;51.084;16.748;2023-07-22T08:13:34;3.60;;;2.20;;
72095;SDS011;59968;51.084;16.748;2023-07-22T08:16:05;3.00;;;1.90;;
72095;SDS011;59968;51.084;16.748;2023-07-22T08:18:36;2.60;;;2.10;;
72095;SDS011;59968;51.084;16.748;2023-07-22T08:21:06;5.20;;;2.00;;
72095;SDS011;59968;51.084;16.748;2023-07-22T08:23:36;2.60;;;1.80;;
72095;SDS011;59968;51.084;16.748;2023-07-22T08:26:05;3.20;;;2.10;;
72095;SDS011;59968;51.084;16.748;2023-07-22T08:28:34;2.10;;;1.40;;
72095;SDS011;59968;51.084;16.748;2023-07-22T08:31:08;2.60;;;1.90;;
72095;SDS011;59968;51.084;16.748;2023-07-22T08:33:39;3.20;;;2.00;;
72095;SDS011;59968;51.084;16.748;2023-07-22T08:36:09;4.70;;;2.30;;
72095;SDS011;59968;51.084;16.748;2023-07-22T08:38:39;2.90;;;2.00;;
72095;SDS011;59968;51.084;16.748;2023-07-22T08:41:09;2.80;;;1.80;;
72095;SDS011;59968;51.084;16.748;2023-07-22T08:43:43;2.20;;;1.80;;
72095;SDS011;59968;51.084;16.748;2023-07-22T08:46:14;5.10;;;2.00;;
72095;SDS011;59968;51.084;16.748;2023-07-22T08:48:44;4.50;;;1.70;;
72095;SDS011;59968;51.084;16.748;2023-07-22T08:51:17;2.70;;;1.80;;
72095;SDS011;59968;51.084;16.748;2023-07-22T08:53:47;4.00;;;1.80;;
72095;SDS011;59968;51.084;16.748;2023-07-22T08:56:36;3.60;;;2.00;;
72095;SDS011;59968;51.084;16.748;2023-07-22T08:59:08;2.90;;;2.00;;
72095;SDS011;59968;51.084;16.748;2023-07-22T09:01:38;4.50;;;2.30;;
72095;SDS011;59968;51.084;16.748;2023-07-22T09:04:07;4.10;;;2.40;;
72095;SDS011;59968;51.084;16.748;2023-07-22T09:06:36;3.40;;;2.20;;
72095;SDS011;59968;51.084;16.748;2023-07-22T09:09:05;4.30;;;2.60;;
72095;SDS011;59968;51.084;16.748;2023-07-22T09:11:37;2.40;;;2.20;;
72095;SDS011;59968;51.084;16.748;2023-07-22T09:14:06;3.60;;;2.30;;
72095;SDS011;59968;51.084;16.748;2023-07-22T09:16:37;2.80;;;2.30;;
72095;SDS011;59968;51.084;16.748;2023-07-22T09:19:08;3.30;;;2.40;;
72095;SDS011;59968;51.084;16.748;2023-07-22T09:21:37;4.40;;;2.40;;
72095;SDS011;59968;51.084;16.748;2023-07-22T09:24:21;3.30;;;2.50;;
72095;SDS011;59968;51.084;16.748;2023-07-22T09:26:52;3.20;;;2.10;;
72095;SDS011;59968;51.084;16.748;2023-07-22T09:29:34;3.90;;;2.30;;
72095;SDS011;59968;51.084;16.748;2023-07-22T09:32:05;4.60;;;2.30;;
72095;SDS011;59968;51.084;16.748;2023-07-22T09:34:34;4.50;;;2.70;;
72095;SDS011;59968;51.084;16.748;2023-07-22T09:37:04;2.60;;;2.10;;
72095;SDS011;59968;51.084;16.748;2023-07-22T09:39:33;3.20;;;2.60;;
72095;SDS011;59968;51.084;16.748;2023-07-22T09:42:03;3.50;;;2.30;;
72095;SDS011;59968;51.084;16.748;2023-07-22T09:44:32;3.60;;;2.20;;
72095;SDS011;59968;51.084;16.748;2023-07-22T09:47:05;2.50;;;2.00;;
72095;SDS011;59968;51.084;16.748;2023-07-22T09:49:39;3.80;;;2.50;;
72095;SDS011;59968;51.084;16.748;2023-07-22T09:52:10;3.50;;;2.50;;
72095;SDS011;59968;51.084;16.748;2023-07-22T09:54:46;4.80;;;2.20;;
72095;SDS011;59968;51.084;16.748;2023-07-22T09:57:17;4.20;;;2.50;;
72095;SDS011;59968;51.084;16.748;2023-07-22T09:59:46;3.90;;;2.60;;
72095;SDS011;59968;51.084;16.748;2023-07-22T10:02:21;5.00;;;2.70;;
72095;SDS011;59968;51.084;16.748;2023-07-22T10:04:53;4.80;;;2.70;;
72095;SDS011;59968;51.084;16.748;2023-07-22T10:07:25;3.00;;;2.40;;
72095;SDS011;59968;51.084;16.748;2023-07-22T10:09:54;3.90;;;2.40;;
72095;SDS011;59968;51.084;16.748;2023-07-22T10:12:24;4.90;;;2.10;;
72095;SDS011;59968;51.084;16.748;2023-07-22T10:14:55;3.40;;;2.20;;
72095;SDS011;59968;51.084;16.748;2023-07-22T10:17:26;2.20;;;1.90;;
72095;SDS011;59968;51.084;16.748;2023-07-22T10:20:00;3.40;;;2.20;;
72095;SDS011;59968;51.084;16.748;2023-07-22T10:22:37;2.80;;;1.80;;
72095;SDS011;59968;51.084;16.748;2023-07-22T10:25:08;3.30;;;2.20;;
72095;SDS011;59968;51.084;16.748;2023-07-22T10:27:40;4.40;;;2.60;;
72095;SDS011;59968;51.084;16.748;2023-07-22T10:30:13;2.90;;;2.30;;
72095;SDS011;59968;51.084;16.748;2023-07-22T10:32:48;2.40;;;2.00;;
72095;SDS011;59968;51.084;16.748;2023-07-22T10:38:13;4.20;;;2.80;;
72095;SDS011;59968;51.084;16.748;2023-07-22T10:40:49;3.90;;;2.60;;
72095;SDS011;59968;51.084;16.748;2023-07-22T10:43:38;3.40;;;2.20;;
72095;SDS011;59968;51.084;16.748;2023-07-22T10:46:11;4.10;;;2.50;;
72095;SDS011;59968;51.084;16.748;2023-07-22T10:48:42;2.60;;;2.30;;
72095;SDS011;59968;51.084;16.748;2023-07-22T10:51:16;3.50;;;2.60;;
72095;SDS011;59968;51.084;16.748;2023-07-22T10:53:50;4.80;;;2.30;;
72095;SDS011;59968;51.084;16.748;2023-07-22T10:56:24;4.00;;;2.00;;
72095;SDS011;59968;51.084;16.748;2023-07-22T10:58:56;4.10;;;2.30;;
72095;SDS011;59968;51.084;16.748;2023-07-22T11:07:07;3.90;;;2.50;;
72095;SDS011;59968;51.084;16.748;2023-07-22T11:09:39;3.50;;;2.60;;
72095;SDS011;59968;51.084;16.748;2023-07-22T11:12:13;2.80;;;2.40;;
72095;SDS011;59968;51.084;16.748;2023-07-22T11:17:29;5.60;;;2.80;;
72095;SDS011;59968;51.084;16.748;2023-07-22T11:20:04;4.20;;;2.70;;
72095;SDS011;59968;51.084;16.748;2023-07-22T11:22:34;4.50;;;2.40;;
72095;SDS011;59968;51.084;16.748;2023-07-22T11:25:04;6.00;;;2.50;;
72095;SDS011;59968;51.084;16.748;2023-07-22T11:27:35;3.80;;;2.40;;
72095;SDS011;59968;51.084;16.748;2023-07-22T11:30:10;4.20;;;2.40;;
72095;SDS011;59968;51.084;16.748;2023-07-22T11:32:44;3.00;;;2.40;;
72095;SDS011;59968;51.084;16.748;2023-07-22T11:35:22;3.60;;;2.50;;
72095;SDS011;59968;51.084;16.748;2023-07-22T11:38:01;5.00;;;2.90;;
72095;SDS011;59968;51.084;16.748;2023-07-22T11:40:37;4.00;;;2.70;;
72095;SDS011;59968;51.084;16.748;2023-07-22T11:43:14;3.00;;;2.40;;
72095;SDS011;59968;51.084;16.748;2023-07-22T11:45:45;6.20;;;2.80;;
72095;SDS011;59968;51.084;16.748;2023-07-22T11:48:16;3.20;;;2.50;;
72095;SDS011;59968;51.084;16.748;2023-07-22T11:50:51;3.90;;;2.30;;
72095;SDS011;59968;51.084;16.748;2023-07-22T11:53:25;5.80;;;2.40;;
72095;SDS011;59968;51.084;16.748;2023-07-22T11:55:57;4.10;;;2.50;;
72095;SDS011;59968;51.084;16.748;2023-07-22T11:58:26;5.10;;;2.60;;
72095;SDS011;59968;51.084;16.748;2023-07-22T12:01:07;3.50;;;2.50;;
72095;SDS011;59968;51.084;16.748;2023-07-22T12:03:39;3.30;;;2.10;;
72095;SDS011;59968;51.084;16.748;2023-07-22T12:06:08;2.80;;;2.00;;
72095;SDS011;59968;51.084;16.748;2023-07-22T12:08:45;4.10;;;2.10;;
72095;SDS011;59968;51.084;16.748;2023-07-22T12:11:22;4.90;;;2.10;;
72095;SDS011;59968;51.084;16.748;2023-07-22T12:14:12;3.30;;;2.30;;
72095;SDS011;59968;51.084;16.748;2023-07-22T12:16:46;2.80;;;1.90;;
72095;SDS011;59968;51.084;16.748;2023-07-22T12:19:24;3.50;;;2.30;;
72095;SDS011;59968;51.084;16.748;2023-07-22T12:21:59;3.70;;;2.40;;
72095;SDS011;59968;51.084;16.748;2023-07-22T12:24:28;3.30;;;2.20;;
72095;SDS011;59968;51.084;16.748;2023-07-22T12:26:58;3.40;;;2.20;;
72095;SDS011;59968;51.084;16.748;2023-07-22T12:29:28;5.00;;;2.30;;
72095;SDS011;59968;51.084;16.748;2023-07-22T12:32:07;3.10;;;1.70;;
72095;SDS011;59968;51.084;16.748;2023-07-22T12:34:38;5.10;;;2.90;;
72095;SDS011;59968;51.084;16.748;2023-07-22T12:37:10;4.50;;;2.50;;
72095;SDS011;59968;51.084;16.748;2023-07-22T12:39:42;2.70;;;1.90;;
72095;SDS011;59968;51.084;16.748;2023-07-22T12:42:14;3.30;;;2.00;;
72095;SDS011;59968;51.084;16.748;2023-07-22T12:44:43;2.90;;;2.10;;
72095;SDS011;59968;51.084;16.748;2023-07-22T12:47:13;3.80;;;2.00;;
72095;SDS011;59968;51.084;16.748;2023-07-22T12:49:44;2.90;;;2.40;;
72095;SDS011;59968;51.084;16.748;2023-07-22T12:52:14;4.10;;;2.10;;
72095;SDS011;59968;51.084;16.748;2023-07-22T12:54:47;3.20;;;2.00;;
72095;SDS011;59968;51.084;16.748;2023-07-22T12:57:18;3.40;;;2.10;;
72095;SDS011;59968;51.084;16.748;2023-07-22T12:59:51;6.30;;;2.00;;
72095;SDS011;59968;51.084;16.748;2023-07-22T13:02:30;3.60;;;2.10;;
72095;SDS011;59968;51.084;16.748;2023-07-22T13:05:04;2.60;;;1.70;;
72095;SDS011;59968;51.084;16.748;2023-07-22T13:07:36;2.40;;;1.60;;
72095;SDS011;59968;51.084;16.748;2023-07-22T13:10:11;3.20;;;1.90;;
72095;SDS011;59968;51.084;16.748;2023-07-22T13:12:52;3.20;;;1.90;;
72095;SDS011;59968;51.084;16.748;2023-07-22T13:15:27;2.20;;;1.80;;
72095;SDS011;59968;51.084;16.748;2023-07-22T13:18:13;2.90;;;2.20;;
72095;SDS011;59968;51.084;16.748;2023-07-22T13:20:46;2.90;;;1.80;;
72095;SDS011;59968;51.084;16.748;2023-07-22T13:23:27;3.80;;;2.00;;
72095;SDS011;59968;51.084;16.748;2023-07-22T13:26:07;2.80;;;1.80;;
72095;SDS011;59968;51.084;16.748;2023-07-22T13:28:36;4.40;;;2.10;;
72095;SDS011;59968;51.084;16.748;2023-07-22T13:31:04;2.80;;;1.80;;
72095;SDS011;59968;51.084;16.748;2023-07-22T13:33:34;4.70;;;2.20;;
72095;SDS011;59968;51.084;16.748;2023-07-22T13:36:04;3.10;;;2.10;;
72095;SDS011;59968;51.084;16.748;2023-07-22T13:38:45;2.70;;;1.70;;
72095;SDS011;59968;51.084;16.748;2023-07-22T13:41:18;3.20;;;2.10;;
72095;SDS011;59968;51.084;16.748;2023-07-22T13:43:49;3.20;;;2.00;;
72095;SDS011;59968;51.084;16.748;2023-07-22T13:46:32;3.60;;;2.30;;
72095;SDS011;59968;51.084;16.748;2023-07-22T13:49:33;3.00;;;1.70;;
72095;SDS011;59968;51.084;16.748;2023-07-22T13:52:03;3.10;;;2.00;;
72095;SDS011;59968;51.084;16.748;2023-07-22T13:54:33;2.70;;;2.00;;
72095;SDS011;59968;51.084;16.748;2023-07-22T13:57:21;4.30;;;2.40;;
72095;SDS011;59968;51.084;16.748;2023-07-22T13:59:53;3.80;;;2.10;;
72095;SDS011;59968;51.084;16.748;2023-07-22T14:02:31;3.90;;;1.80;;
72095;SDS011;59968;51.084;16.748;2023-07-22T14:05:06;5.50;;;1.80;;
72095;SDS011;59968;51.084;16.748;2023-07-22T14:07:37;3.30;;;2.20;;
72095;SDS011;59968;51.084;16.748;2023-07-22T14:10:18;4.30;;;2.20;;
72095;SDS011;59968;51.084;16.748;2023-07-22T14:12:47;4.90;;;2.20;;
72095;SDS011;59968;51.084;16.748;2023-07-22T14:15:18;2.80;;;1.80;;
72095;SDS011;59968;51.084;16.748;2023-07-22T14:18:11;3.10;;;1.90;;
72095;SDS011;59968;51.084;16.748;2023-07-22T14:20:54;2.30;;;1.70;;
72095;SDS011;59968;51.084;16.748;2023-07-22T14:24:03;2.60;;;1.90;;
72095;SDS011;59968;51.084;16.748;2023-07-22T14:26:47;2.60;;;1.90;;
72095;SDS011;59968;51.084;16.748;2023-07-22T14:29:23;3.70;;;2.10;;
72095;SDS011;59968;51.084;16.748;2023-07-22T14:32:01;3.70;;;1.80;;
72095;SDS011;59968;51.084;16.748;2023-07-22T14:34:49;3.90;;;1.70;;
72095;SDS011;59968;51.084;16.748;2023-07-22T14:37:19;2.80;;;1.80;;
72095;SDS011;59968;51.084;16.748;2023-07-22T14:39:48;3.90;;;2.10;;
72095;SDS011;59968;51.084;16.748;2023-07-22T14:42:18;4.10;;;2.10;;
72095;SDS011;59968;51.084;16.748;2023-07-22T14:44:48;2.70;;;1.70;;
72095;SDS011;59968;51.084;16.748;2023-07-22T14:47:18;3.60;;;1.70;;
72095;SDS011;59968;51.084;16.748;2023-07-22T14:49:50;2.80;;;2.30;;
72095;SDS011;59968;51.084;16.748;2023-07-22T14:52:22;3.00;;;2.10;;
72095;SDS011;59968;51.084;16.748;2023-07-22T14:55:01;3.10;;;2.10;;
72095;SDS011;59968;51.084;16.748;2023-07-22T14:57:32;3.10;;;2.20;;
72095;SDS011;59968;51.084;16.748;2023-07-22T15:00:03;4.20;;;2.50;;
72095;SDS011;59968;51.084;16.748;2023-07-22T15:02:34;3.60;;;2.60;;
72095;SDS011;59968;51.084;16.748;2023-07-22T15:05:10;3.20;;;2.10;;
72095;SDS011;59968;51.084;16.748;2023-07-22T15:07:40;5.20;;;2.40;;
72095;SDS011;59968;51.084;16.748;2023-07-22T15:10:08;4.20;;;2.00;;